Time;durP1;ratioP1;P1;durP2;ratioP2;P2;SDS_P1;SDS_P2;PMS_P1;PMS_P2;Temp;Humidity;BMP_temperature;BMP_pressure;BME280_temperature;BME280_humidity;BME280_pressure;Samples;Min_cycle;Max_cycle;Signal;HPM_P1;HPM_P2
2024/01/31 00:01:33;;;;;;;8.77;4.13;;;7.80;99.90;;;;;;5078114;28;21005;-86
2024/01/31 00:04:01;;;;;;;11.40;4.30;;;7.80;99.90;;;;;;5074120;28;20485;-85
2024/01/31 00:06:28;;;;;;;9.70;4.50;;;7.80;99.90;;;;;;5081800;28;20533;-85
2024/01/31 00:08:56;;;;;;;7.07;4.40;;;7.70;99.90;;;;;;5082575;28;20564;-84
2024/01/31 00:11:25;;;;;;;12.23;4.47;;;7.80;99.90;;;;;;5080438;28;20600;-84
2024/01/31 00:13:52;;;;;;;11.53;4.00;;;7.80;99.90;;;;;;5081269;28;20456;-85
2024/01/31 00:16:19;;;;;;;10.97;4.80;;;7.70;99.90;;;;;;5074252;28;20521;-85
2024/01/31 00:18:45;;;;;;;12.10;4.50;;;7.70;99.90;;;;;;5081612;28;20549;-86
2024/01/31 00:24:36;;;;;;;8.30;4.57;;;7.80;99.90;;;;;;5072614;28;20483;-83
2024/01/31 00:27:02;;;;;;;10.50;5.30;;;7.70;99.90;;;;;;5079616;28;20453;-83
2024/01/31 00:29:29;;;;;;;7.73;4.77;;;7.70;99.90;;;;;;5079967;28;20477;-83
2024/01/31 00:31:56;;;;;;;9.13;4.37;;;7.70;99.90;;;;;;5079804;28;20493;-82
2024/01/31 00:34:23;;;;;;;11.50;5.47;;;7.70;99.90;;;;;;5079575;28;20553;-85
2024/01/31 00:36:50;;;;;;;14.30;5.20;;;7.70;99.90;;;;;;5078453;28;20460;-83
2024/01/31 00:39:16;;;;;;;10.20;5.33;;;7.80;99.90;;;;;;5078586;28;20487;-84
2024/01/31 00:41:45;;;;;;;9.77;4.83;;;7.70;99.90;;;;;;5078779;28;20524;-85
2024/01/31 00:44:12;;;;;;;11.70;5.67;;;7.80;99.90;;;;;;5079346;28;20488;-84
2024/01/31 00:46:42;;;;;;;14.93;5.60;;;7.70;99.90;;;;;;5073734;28;20465;-85
2024/01/31 00:49:09;;;;;;;13.90;6.27;;;7.70;99.90;;;;;;5079802;28;20869;-86
2024/01/31 00:51:35;;;;;;;12.63;5.37;;;7.70;99.90;;;;;;5079751;28;20861;-85
2024/01/31 00:54:02;;;;;;;10.20;5.50;;;7.70;99.90;;;;;;5080279;28;20510;-85
2024/01/31 00:56:29;;;;;;;14.17;6.80;;;7.80;99.90;;;;;;5080022;28;20451;-85
2024/01/31 00:58:57;;;;;;;11.33;6.20;;;7.80;99.90;;;;;;5074665;28;20484;-85
2024/01/31 01:01:24;;;;;;;16.07;7.43;;;7.80;99.90;;;;;;5080594;28;20490;-84
2024/01/31 01:03:51;;;;;;;13.83;6.60;;;7.80;99.90;;;;;;5080975;28;20958;-85
2024/01/31 01:06:17;;;;;;;16.23;6.97;;;7.80;99.90;;;;;;5078854;28;20481;-85
2024/01/31 01:08:44;;;;;;;16.60;6.77;;;7.80;99.90;;;;;;5079674;28;20572;-84
2024/01/31 01:11:11;;;;;;;13.40;7.23;;;7.80;99.90;;;;;;5079372;28;20514;-84
2024/01/31 01:13:38;;;;;;;16.90;7.20;;;7.80;99.90;;;;;;5079306;28;20458;-84
2024/01/31 01:16:07;;;;;;;11.63;7.43;;;7.80;99.90;;;;;;5079232;28;20456;-85
2024/01/31 01:18:33;;;;;;;12.60;6.47;;;7.80;99.90;;;;;;5075405;28;20570;-84
2024/01/31 01:21:01;;;;;;;14.63;6.90;;;7.80;99.90;;;;;;5073922;28;20471;-83
2024/01/31 01:23:27;;;;;;;15.20;9.20;;;7.80;99.90;;;;;;5079911;28;20472;-83
2024/01/31 01:25:54;;;;;;;14.30;7.67;;;7.80;99.90;;;;;;5078894;28;20676;-84
2024/01/31 01:28:21;;;;;;;16.90;8.07;;;7.80;99.90;;;;;;5070238;28;20510;-85
2024/01/31 01:30:48;;;;;;;13.43;7.43;;;7.80;99.90;;;;;;5071204;28;20471;-84
2024/01/31 01:33:16;;;;;;;15.67;8.47;;;7.90;99.90;;;;;;5076355;28;20976;-84
2024/01/31 01:35:43;;;;;;;13.50;8.50;;;7.80;99.90;;;;;;5069878;28;20553;-85
2024/01/31 01:38:10;;;;;;;14.17;8.20;;;7.90;99.90;;;;;;5079058;28;20486;-85
2024/01/31 01:40:42;;;;;;;14.03;8.00;;;7.80;99.90;;;;;;5074959;28;20445;-84
2024/01/31 01:43:16;;;;;;;23.10;10.47;;;7.90;99.90;;;;;;5075779;28;20477;-85
2024/01/31 01:45:42;;;;;;;15.73;8.73;;;7.80;99.90;;;;;;5071138;28;20556;-85
2024/01/31 01:48:09;;;;;;;15.93;10.20;;;7.80;99.90;;;;;;5070799;28;20923;-84
2024/01/31 01:50:38;;;;;;;19.00;9.30;;;7.90;99.90;;;;;;5078692;28;20513;-80
2024/01/31 01:53:05;;;;;;;13.80;8.70;;;7.70;99.90;;;;;;5078006;28;20476;-84
2024/01/31 01:55:32;;;;;;;20.23;9.50;;;7.90;99.90;;;;;;5077429;28;20530;-84
2024/01/31 01:58:00;;;;;;;15.53;9.63;;;7.90;99.90;;;;;;5076934;28;20480;-85
2024/01/31 02:00:27;;;;;;;16.20;9.37;;;7.80;99.90;;;;;;5075741;28;20458;-84
2024/01/31 02:02:54;;;;;;;15.83;10.23;;;7.80;99.90;;;;;;5072794;28;20443;-84
2024/01/31 02:05:21;;;;;;;14.50;9.77;;;7.90;99.90;;;;;;5077842;28;20496;-85
2024/01/31 02:07:49;;;;;;;19.77;9.83;;;7.80;99.90;;;;;;5078167;28;21031;-83
2024/01/31 02:10:16;;;;;;;19.03;10.33;;;7.80;99.90;;;;;;5077922;28;20454;-85
2024/01/31 02:12:42;;;;;;;18.17;9.17;;;7.70;99.90;;;;;;5077168;28;20478;-85
2024/01/31 02:15:10;;;;;;;19.07;10.30;;;7.70;99.90;;;;;;5077808;28;20481;-85
2024/01/31 02:17:37;;;;;;;15.90;9.20;;;7.70;99.90;;;;;;5078745;28;20627;-84
2024/01/31 02:20:05;;;;;;;14.07;8.90;;;7.70;99.90;;;;;;5077151;28;20451;-84
2024/01/31 02:22:33;;;;;;;13.03;7.50;;;7.70;99.90;;;;;;5077758;28;20532;-85
2024/01/31 02:25:01;;;;;;;10.83;7.27;;;7.80;99.90;;;;;;5076893;28;20613;-84
2024/01/31 02:27:28;;;;;;;9.60;6.23;;;7.70;99.90;;;;;;5069618;28;20500;-84
2024/01/31 02:29:55;;;;;;;10.70;6.00;;;7.80;99.90;;;;;;5073049;28;20542;-84
2024/01/31 02:32:21;;;;;;;10.90;6.80;;;7.80;99.90;;;;;;5077726;28;20451;-86
2024/01/31 02:34:48;;;;;;;9.87;7.37;;;7.80;99.90;;;;;;5078360;28;20459;-83
2024/01/31 02:37:15;;;;;;;13.73;7.07;;;7.80;99.90;;;;;;5080433;28;20454;-85
2024/01/31 02:39:43;;;;;;;9.70;6.47;;;7.90;99.90;;;;;;5077167;28;20490;-85
2024/01/31 02:42:10;;;;;;;13.20;6.37;;;7.90;99.90;;;;;;5081325;28;20454;-85
2024/01/31 02:44:37;;;;;;;10.20;7.20;;;7.90;99.90;;;;;;5084635;28;20517;-83
2024/01/31 02:47:04;;;;;;;8.77;6.47;;;7.90;99.90;;;;;;5093030;28;20490;-84
2024/01/31 02:49:30;;;;;;;13.70;7.67;;;8.00;99.90;;;;;;5093086;28;20498;-84
2024/01/31 02:51:57;;;;;;;11.23;7.63;;;7.90;99.90;;;;;;5081763;28;20456;-85
2024/01/31 02:54:24;;;;;;;10.63;7.13;;;7.80;99.90;;;;;;5079631;28;20517;-84
2024/01/31 02:56:52;;;;;;;12.93;6.93;;;7.80;99.90;;;;;;5078592;28;20827;-84
2024/01/31 02:59:22;;;;;;;10.27;6.63;;;7.80;99.90;;;;;;5072920;28;20485;-84
2024/01/31 03:01:50;;;;;;;13.23;7.40;;;7.90;99.90;;;;;;5078645;28;20461;-83
2024/01/31 03:04:18;;;;;;;9.77;6.47;;;7.90;99.90;;;;;;5079880;28;20500;-86
2024/01/31 03:06:45;;;;;;;10.57;6.93;;;7.90;99.90;;;;;;5078846;28;20489;-84
2024/01/31 03:09:11;;;;;;;12.00;6.90;;;7.90;99.90;;;;;;5078900;28;20472;-85
2024/01/31 03:11:38;;;;;;;11.57;7.67;;;8.00;99.90;;;;;;5078433;28;20485;-85
2024/01/31 03:14:06;;;;;;;9.63;6.47;;;7.90;99.90;;;;;;5077964;28;20547;-84
2024/01/31 03:16:33;;;;;;;10.90;6.97;;;7.90;99.90;;;;;;5078769;28;20456;-85
2024/01/31 03:19:00;;;;;;;9.37;5.13;;;7.80;99.90;;;;;;5078401;28;21008;-85
2024/01/31 03:21:28;;;;;;;12.77;6.77;;;7.80;99.90;;;;;;5070858;28;20464;-86
2024/01/31 03:23:55;;;;;;;6.07;4.40;;;7.80;99.90;;;;;;5081229;28;20463;-85
2024/01/31 03:26:22;;;;;;;7.80;4.73;;;7.60;99.90;;;;;;5075856;28;20493;-84
2024/01/31 03:28:49;;;;;;;7.70;4.70;;;7.70;99.90;;;;;;5076315;28;20483;-83
2024/01/31 03:31:17;;;;;;;4.63;2.87;;;7.70;99.90;;;;;;5075651;28;20831;-84
2024/01/31 03:33:44;;;;;;;3.43;2.13;;;7.60;99.90;;;;;;5075765;28;20458;-84
2024/01/31 03:36:11;;;;;;;5.87;2.63;;;7.70;99.90;;;;;;5075504;28;20926;-85
2024/01/31 03:38:38;;;;;;;4.30;2.83;;;7.70;99.90;;;;;;5076653;28;20479;-83
2024/01/31 03:41:06;;;;;;;7.83;2.27;;;7.70;99.90;;;;;;5079591;28;20831;-84
2024/01/31 03:43:32;;;;;;;3.03;2.23;;;7.70;99.90;;;;;;5077975;28;20546;-84
2024/01/31 03:46:00;;;;;;;3.80;2.33;;;7.70;99.90;;;;;;5076399;28;20563;-85
2024/01/31 03:48:28;;;;;;;3.33;1.93;;;7.70;99.90;;;;;;5077409;28;20482;-84
2024/01/31 03:50:58;;;;;;;6.23;2.73;;;7.60;99.90;;;;;;5078211;28;20510;-85
2024/01/31 03:53:25;;;;;;;4.13;2.60;;;7.60;99.90;;;;;;5070342;28;20514;-83
2024/01/31 03:55:52;;;;;;;3.73;2.50;;;7.60;99.90;;;;;;5076793;28;20467;-84
2024/01/31 03:58:18;;;;;;;6.20;2.33;;;7.60;99.90;;;;;;5078191;28;20904;-85
2024/01/31 04:00:46;;;;;;;4.17;2.43;;;7.70;99.90;;;;;;5078359;28;20744;-84
2024/01/31 04:03:13;;;;;;;6.73;2.80;;;7.70;99.90;;;;;;5076510;28;20458;-83
2024/01/31 04:05:41;;;;;;;9.37;2.90;;;7.70;99.90;;;;;;5069612;28;20484;-84
2024/01/31 04:08:08;;;;;;;6.00;2.50;;;7.70;99.90;;;;;;5069337;28;20564;-84
2024/01/31 04:10:36;;;;;;;6.07;2.60;;;7.70;99.90;;;;;;5077392;28;20542;-84
2024/01/31 04:13:03;;;;;;;3.60;2.20;;;7.70;99.90;;;;;;5077445;28;20489;-84
2024/01/31 04:15:30;;;;;;;6.13;2.67;;;7.70;99.90;;;;;;5076237;28;20831;-84
2024/01/31 04:17:58;;;;;;;4.90;2.30;;;7.70;99.90;;;;;;5077023;28;20494;-85
2024/01/31 04:20:25;;;;;;;4.80;2.13;;;7.70;99.90;;;;;;5077545;28;20536;-83
2024/01/31 04:22:53;;;;;;;3.43;1.90;;;7.70;99.90;;;;;;5077780;28;20901;-84
2024/01/31 04:25:20;;;;;;;6.17;2.50;;;7.60;99.90;;;;;;5079063;28;20579;-81
2024/01/31 04:27:47;;;;;;;3.90;2.17;;;7.60;99.90;;;;;;5079066;28;20559;-85
2024/01/31 04:30:14;;;;;;;2.30;1.80;;;7.60;99.90;;;;;;5072244;28;20463;-83
2024/01/31 04:32:41;;;;;;;3.90;1.80;;;7.60;99.90;;;;;;5077210;28;20529;-84
2024/01/31 04:35:09;;;;;;;3.80;2.60;;;7.60;99.90;;;;;;5066976;28;20969;-82
2024/01/31 04:37:35;;;;;;;4.20;2.50;;;7.60;99.90;;;;;;5072963;28;20463;-85
2024/01/31 04:40:04;;;;;;;4.00;2.20;;;7.50;99.90;;;;;;5076587;28;20537;-83
2024/01/31 04:42:31;;;;;;;2.70;1.63;;;7.50;99.90;;;;;;5077436;28;20553;-84
2024/01/31 04:44:58;;;;;;;3.80;1.90;;;7.50;99.90;;;;;;5071073;28;20461;-83
2024/01/31 04:47:25;;;;;;;5.80;1.83;;;7.50;99.90;;;;;;5073754;28;20912;-82
2024/01/31 04:49:52;;;;;;;3.63;1.73;;;7.60;99.90;;;;;;5082053;28;20487;-84
2024/01/31 04:52:19;;;;;;;5.27;2.33;;;7.60;99.90;;;;;;5082653;28;20474;-83
2024/01/31 04:54:46;;;;;;;7.63;2.30;;;7.60;99.90;;;;;;5083242;28;20960;-84
2024/01/31 04:57:14;;;;;;;3.30;1.97;;;7.60;99.90;;;;;;5081272;28;20453;-82
2024/01/31 04:59:42;;;;;;;7.60;2.60;;;7.60;99.90;;;;;;5075261;28;20627;-84
2024/01/31 05:02:09;;;;;;;2.57;1.80;;;7.50;99.90;;;;;;5078228;28;20547;-84
2024/01/31 05:04:37;;;;;;;5.63;2.30;;;7.50;99.90;;;;;;5081302;28;20459;-83
2024/01/31 05:07:04;;;;;;;6.60;2.63;;;7.50;99.90;;;;;;5082706;28;21042;-84
2024/01/31 05:09:31;;;;;;;3.40;2.40;;;7.50;99.90;;;;;;5082616;28;20547;-84
2024/01/31 05:11:58;;;;;;;4.73;2.97;;;7.50;99.90;;;;;;5083040;28;20532;-85
2024/01/31 05:14:26;;;;;;;4.00;2.60;;;7.50;99.90;;;;;;5076107;28;20452;-83
2024/01/31 05:16:53;;;;;;;5.00;2.07;;;7.50;99.90;;;;;;5082448;28;20477;-84
2024/01/31 05:19:19;;;;;;;5.73;2.57;;;7.50;99.90;;;;;;5082721;28;20556;-84
2024/01/31 05:21:47;;;;;;;4.73;2.43;;;7.60;99.90;;;;;;5082803;28;20524;-84
2024/01/31 05:24:14;;;;;;;3.77;2.77;;;7.50;99.90;;;;;;5070957;28;20527;-83
2024/01/31 05:26:40;;;;;;;5.93;2.97;;;7.50;99.90;;;;;;5072643;28;21063;-83
2024/01/31 05:29:07;;;;;;;5.87;2.73;;;7.50;99.90;;;;;;5079257;28;20555;-84
2024/01/31 05:31:36;;;;;;;5.70;2.77;;;7.60;99.90;;;;;;5080472;28;20451;-84
2024/01/31 05:34:03;;;;;;;4.30;2.13;;;7.50;99.90;;;;;;5080599;28;20482;-86
2024/01/31 05:36:30;;;;;;;3.13;2.07;;;7.50;99.90;;;;;;5080292;28;20537;-85
2024/01/31 05:38:57;;;;;;;6.43;2.50;;;7.50;99.90;;;;;;5080999;28;20881;-85
2024/01/31 05:41:23;;;;;;;4.90;2.13;;;7.50;99.90;;;;;;5080587;28;20879;-85
2024/01/31 05:43:50;;;;;;;3.03;2.47;;;7.50;99.90;;;;;;5080768;28;20471;-84
2024/01/31 05:46:17;;;;;;;3.43;1.93;;;7.40;99.90;;;;;;5082088;28;20567;-85
2024/01/31 05:48:47;;;;;;;8.00;2.73;;;7.50;99.90;;;;;;5081270;28;21161;-85
2024/01/31 05:51:14;;;;;;;4.40;2.67;;;7.50;99.90;;;;;;5082137;28;20836;-84
2024/01/31 05:53:41;;;;;;;4.70;3.30;;;7.50;99.90;;;;;;5081331;28;20445;-85
2024/01/31 05:56:08;;;;;;;9.90;4.30;;;7.50;99.90;;;;;;5082754;28;20513;-84
2024/01/31 05:58:35;;;;;;;7.07;3.90;;;7.50;99.90;;;;;;5080185;28;20520;-84
2024/01/31 06:01:02;;;;;;;9.33;3.20;;;7.50;99.90;;;;;;5082154;28;20452;-84
2024/01/31 06:03:28;;;;;;;4.23;3.00;;;7.50;99.90;;;;;;5084223;28;20516;-84
2024/01/31 06:05:58;;;;;;;4.30;2.27;;;7.50;99.90;;;;;;5088037;28;20483;-84
2024/01/31 06:08:25;;;;;;;5.73;3.37;;;7.50;99.90;;;;;;5079681;28;20506;-83
2024/01/31 06:10:58;;;;;;;5.73;2.80;;;7.50;99.90;;;;;;5079312;28;20462;-85
2024/01/31 06:13:25;;;;;;;4.63;2.60;;;7.50;99.90;;;;;;5069396;28;20557;-82
2024/01/31 06:16:07;;;;;;;4.33;2.20;;;7.50;99.90;;;;;;5072620;28;20457;-82
2024/01/31 06:18:34;;;;;;;3.60;2.70;;;7.50;99.90;;;;;;5072976;28;20483;-84
2024/01/31 06:21:02;;;;;;;6.07;3.10;;;7.50;99.90;;;;;;5068954;28;20450;-83
2024/01/31 06:23:29;;;;;;;6.00;3.80;;;7.50;99.90;;;;;;5071504;28;20459;-83
2024/01/31 06:25:56;;;;;;;6.43;2.97;;;7.50;99.90;;;;;;5070798;28;21021;-83
2024/01/31 06:28:23;;;;;;;7.13;3.40;;;7.50;99.90;;;;;;5072279;28;20470;-84
2024/01/31 06:30:58;;;;;;;3.87;2.60;;;7.50;99.90;;;;;;5064582;28;20486;-82
2024/01/31 06:33:31;;;;;;;5.23;2.90;;;7.50;99.90;;;;;;5066389;28;20543;-82
2024/01/31 06:35:58;;;;;;;6.63;2.53;;;7.50;99.90;;;;;;5065629;28;20448;-82
2024/01/31 06:38:26;;;;;;;3.27;2.10;;;7.50;99.90;;;;;;5065498;28;20862;-84
2024/01/31 06:40:58;;;;;;;4.87;2.47;;;7.50;99.90;;;;;;5072673;28;20449;-85
2024/01/31 06:43:25;;;;;;;5.43;2.93;;;7.50;99.90;;;;;;5071189;28;20562;-81
2024/01/31 06:45:53;;;;;;;4.30;2.50;;;7.50;99.90;;;;;;5070988;28;20458;-83
2024/01/31 06:48:20;;;;;;;5.80;2.90;;;7.50;99.90;;;;;;5071764;28;20492;-82
2024/01/31 06:50:52;;;;;;;4.53;2.43;;;7.50;99.90;;;;;;5071229;28;20468;-82
2024/01/31 06:53:19;;;;;;;6.10;2.53;;;7.50;99.90;;;;;;5068788;28;20449;-83
2024/01/31 06:55:47;;;;;;;6.53;2.70;;;7.50;99.90;;;;;;5071066;28;20459;-83
2024/01/31 06:58:14;;;;;;;3.90;2.77;;;7.50;99.90;;;;;;5072350;28;20477;-81
2024/01/31 07:00:45;;;;;;;3.70;2.90;;;7.50;99.90;;;;;;5072044;28;20443;-82
2024/01/31 07:03:15;;;;;;;3.30;2.43;;;7.50;99.90;;;;;;5074005;28;20533;-82
2024/01/31 07:05:42;;;;;;;4.70;3.47;;;7.50;99.90;;;;;;5073394;28;20953;-84
2024/01/31 07:08:09;;;;;;;5.60;2.40;;;7.50;99.90;;;;;;5073338;28;20981;-82
2024/01/31 07:10:36;;;;;;;4.20;2.50;;;7.50;99.90;;;;;;5073849;28;20491;-84
2024/01/31 07:13:05;;;;;;;3.43;2.70;;;7.50;99.90;;;;;;5074448;28;20459;-85
2024/01/31 07:15:31;;;;;;;3.30;2.87;;;7.50;99.90;;;;;;5075171;28;20918;-84
2024/01/31 07:17:58;;;;;;;5.50;2.80;;;7.40;99.90;;;;;;5073448;28;20543;-86
2024/01/31 07:20:25;;;;;;;5.30;2.90;;;7.40;99.90;;;;;;5074770;28;20455;-85
2024/01/31 07:22:52;;;;;;;5.17;3.20;;;7.30;99.90;;;;;;5077621;28;20482;-84
2024/01/31 07:25:19;;;;;;;5.20;2.70;;;7.30;99.90;;;;;;5069569;28;20891;-85
2024/01/31 07:27:46;;;;;;;8.03;3.50;;;7.40;99.90;;;;;;5075010;28;20592;-86
2024/01/31 07:30:14;;;;;;;6.70;4.47;;;7.40;99.90;;;;;;5078030;28;20468;-83
2024/01/31 07:32:41;;;;;;;7.57;5.00;;;7.40;99.90;;;;;;5071406;28;20542;-85
2024/01/31 07:35:08;;;;;;;8.03;5.10;;;7.30;99.90;;;;;;5083348;28;20536;-84
2024/01/31 07:37:36;;;;;;;9.33;6.23;;;7.30;99.90;;;;;;5084497;28;20467;-86
2024/01/31 07:40:04;;;;;;;10.77;7.13;;;7.70;99.90;;;;;;5071272;28;20515;-83
2024/01/31 07:42:31;;;;;;;7.80;6.73;;;7.40;99.90;;;;;;5070849;28;20947;-83
2024/01/31 07:44:57;;;;;;;8.33;6.20;;;7.40;99.90;;;;;;5071965;28;20985;-81
2024/01/31 07:47:26;;;;;;;6.80;6.00;;;7.50;99.90;;;;;;5069908;28;21021;-83
2024/01/31 07:49:52;;;;;;;11.73;6.33;;;7.50;99.90;;;;;;5069764;28;20489;-84
2024/01/31 07:52:19;;;;;;;7.07;5.80;;;7.60;99.90;;;;;;5068030;28;20452;-83
2024/01/31 07:54:46;;;;;;;13.37;7.30;;;7.60;99.90;;;;;;5075626;28;20549;-82
2024/01/31 07:57:13;;;;;;;13.47;7.73;;;7.40;99.90;;;;;;5075105;28;20825;-81
2024/01/31 07:59:40;;;;;;;12.77;9.33;;;7.40;99.90;;;;;;5071001;28;20497;-83
2024/01/31 08:02:06;;;;;;;14.20;8.50;;;7.40;99.90;;;;;;5071904;28;21929;-84
2024/01/31 08:04:35;;;;;;;13.93;8.90;;;7.40;99.90;;;;;;5076088;28;20532;-84
2024/01/31 08:07:01;;;;;;;11.17;7.50;;;7.50;99.90;;;;;;5073794;28;20490;-83
2024/01/31 08:09:29;;;;;;;9.90;7.30;;;7.50;99.90;;;;;;5070264;28;20555;-83
2024/01/31 08:11:56;;;;;;;13.33;8.80;;;7.60;99.90;;;;;;5068583;28;20488;-82
2024/01/31 08:14:23;;;;;;;11.90;7.50;;;7.70;99.90;;;;;;5074540;28;20519;-83
2024/01/31 08:16:51;;;;;;;14.83;9.00;;;7.70;99.90;;;;;;5068121;28;20482;-84
2024/01/31 08:19:18;;;;;;;11.63;8.07;;;7.70;99.90;;;;;;5066719;28;20509;-84
2024/01/31 08:21:46;;;;;;;14.10;7.23;;;7.80;99.90;;;;;;5072556;28;20478;-83
2024/01/31 08:24:13;;;;;;;9.53;7.20;;;7.80;99.90;;;;;;5069450;28;20957;-82
2024/01/31 08:26:40;;;;;;;11.63;7.70;;;7.80;99.90;;;;;;5068908;28;20928;-82
2024/01/31 08:29:07;;;;;;;12.47;8.47;;;7.80;99.90;;;;;;5073332;28;20470;-83
2024/01/31 08:31:34;;;;;;;15.97;9.50;;;7.80;99.90;;;;;;5076730;28;20837;-83
2024/01/31 08:34:00;;;;;;;13.00;9.47;;;7.80;99.90;;;;;;5077224;28;20444;-84
2024/01/31 08:36:27;;;;;;;14.90;9.63;;;7.90;99.90;;;;;;5075565;28;20548;-83
2024/01/31 08:38:55;;;;;;;15.47;9.60;;;7.90;99.90;;;;;;5072065;28;20466;-83
2024/01/31 08:41:23;;;;;;;17.37;9.57;;;7.90;99.90;;;;;;5077499;28;21021;-83
2024/01/31 08:43:50;;;;;;;14.67;8.87;;;7.90;99.90;;;;;;5076273;28;20519;-82
2024/01/31 08:46:17;;;;;;;10.90;8.60;;;7.90;99.90;;;;;;5073914;28;20455;-84
2024/01/31 08:48:44;;;;;;;12.43;7.97;;;8.00;99.90;;;;;;5076140;28;20569;-85
2024/01/31 08:51:11;;;;;;;15.00;8.23;;;8.00;99.90;;;;;;5085241;28;20522;-85
2024/01/31 08:53:38;;;;;;;17.57;10.37;;;8.00;99.90;;;;;;5083491;28;20514;-84
2024/01/31 08:56:07;;;;;;;19.37;10.00;;;8.00;99.90;;;;;;5090473;28;21008;-83
2024/01/31 08:58:34;;;;;;;16.90;9.20;;;8.00;99.90;;;;;;5088485;28;20471;-83
2024/01/31 09:01:01;;;;;;;14.87;9.23;;;8.00;99.90;;;;;;5092679;28;20519;-80
2024/01/31 09:03:27;;;;;;;12.73;8.77;;;8.00;99.90;;;;;;5095620;28;20477;-83
2024/01/31 09:05:55;;;;;;;18.50;10.17;;;8.00;99.90;;;;;;5095127;28;20453;-83
2024/01/31 09:08:22;;;;;;;16.63;9.50;;;8.00;99.90;;;;;;5094283;28;20483;-82
2024/01/31 09:10:49;;;;;;;13.43;9.50;;;8.00;99.90;;;;;;5083342;28;20551;-81
2024/01/31 09:13:17;;;;;;;12.30;8.10;;;8.00;99.90;;;;;;5073002;28;20447;-84
2024/01/31 09:15:44;;;;;;;14.17;8.87;;;8.00;99.90;;;;;;5082313;28;20489;-82
2024/01/31 09:18:11;;;;;;;12.50;8.00;;;8.00;99.90;;;;;;5073284;28;20947;-81
2024/01/31 09:20:38;;;;;;;17.60;8.90;;;8.10;99.90;;;;;;5073422;28;20454;-81
2024/01/31 09:23:05;;;;;;;10.70;7.53;;;8.10;99.90;;;;;;5073261;28;20456;-82
2024/01/31 09:25:32;;;;;;;14.63;8.20;;;8.20;99.90;;;;;;5073815;28;20544;-83
2024/01/31 09:27:59;;;;;;;14.53;9.73;;;8.20;99.90;;;;;;5075671;28;20491;-83
2024/01/31 09:30:27;;;;;;;16.73;8.63;;;8.20;99.90;;;;;;5072462;28;20450;-81
2024/01/31 09:32:56;;;;;;;11.57;8.90;;;8.20;99.90;;;;;;5071920;28;20507;-82
2024/01/31 09:35:23;;;;;;;14.00;8.60;;;8.20;99.90;;;;;;5074265;28;20484;-84
2024/01/31 09:37:51;;;;;;;14.10;8.97;;;8.30;99.90;;;;;;5073504;28;20475;-82
2024/01/31 09:40:19;;;;;;;12.77;7.20;;;8.40;99.90;;;;;;5075759;28;20456;-82
2024/01/31 09:42:46;;;;;;;13.53;11.50;;;8.40;99.90;;;;;;5067683;28;21032;-82
2024/01/31 09:45:14;;;;;;;14.20;10.00;;;8.50;99.90;;;;;;5071502;28;20539;-83
2024/01/31 09:47:46;;;;;;;14.80;9.60;;;8.50;99.90;;;;;;5072458;28;21007;-83
2024/01/31 09:50:13;;;;;;;13.10;8.70;;;8.60;99.90;;;;;;5073442;28;20491;-81
2024/01/31 09:52:41;;;;;;;10.03;6.93;;;8.60;99.90;;;;;;5077501;28;20530;-83
2024/01/31 09:55:10;;;;;;;13.17;7.20;;;8.60;99.90;;;;;;5076853;28;20533;-82
2024/01/31 09:57:37;;;;;;;12.43;7.60;;;8.70;99.90;;;;;;5074925;28;20533;-81
2024/01/31 10:00:08;;;;;;;17.50;8.50;;;8.70;99.90;;;;;;5074876;28;21017;-82
2024/01/31 10:02:36;;;;;;;10.23;6.77;;;8.80;99.90;;;;;;5075065;28;20456;-83
2024/01/31 10:05:06;;;;;;;10.67;7.37;;;8.70;99.90;;;;;;5078718;28;21161;-82
2024/01/31 10:07:35;;;;;;;12.03;8.27;;;8.80;99.90;;;;;;5075586;28;20479;-82
2024/01/31 10:10:02;;;;;;;11.80;7.83;;;8.70;99.90;;;;;;5073780;28;20868;-81
2024/01/31 10:12:29;;;;;;;9.60;7.07;;;8.70;99.90;;;;;;5070837;28;20451;-82
2024/01/31 10:14:59;;;;;;;11.83;7.47;;;8.80;99.90;;;;;;5070969;28;20909;-82
2024/01/31 10:17:26;;;;;;;10.50;6.70;;;8.70;99.90;;;;;;5069378;28;20984;-83
2024/01/31 10:19:53;;;;;;;8.43;5.70;;;8.70;99.90;;;;;;5080126;28;20483;-82
2024/01/31 10:22:22;;;;;;;11.47;6.40;;;8.70;99.90;;;;;;5073579;28;20785;-82
2024/01/31 10:24:50;;;;;;;9.50;6.50;;;8.70;99.90;;;;;;5070683;28;20455;-80
2024/01/31 10:27:20;;;;;;;10.10;6.60;;;8.70;99.90;;;;;;5069607;28;20489;-82
2024/01/31 10:29:46;;;;;;;11.77;7.73;;;8.60;99.90;;;;;;5069654;28;20483;-82
2024/01/31 10:32:16;;;;;;;8.70;5.93;;;8.60;99.90;;;;;;5067380;28;21014;-79
2024/01/31 10:34:43;;;;;;;10.10;7.10;;;8.60;99.90;;;;;;5071810;28;20465;-82
2024/01/31 10:37:11;;;;;;;11.87;6.20;;;8.60;99.90;;;;;;5070982;28;20446;-82
2024/01/31 10:39:40;;;;;;;12.53;6.57;;;8.60;99.90;;;;;;5069735;28;20471;-81
2024/01/31 10:42:08;;;;;;;13.90;8.40;;;8.70;99.90;;;;;;5070482;28;20455;-82
2024/01/31 10:44:37;;;;;;;13.57;7.80;;;8.70;99.90;;;;;;5070823;28;21046;-84
2024/01/31 10:47:04;;;;;;;12.70;7.90;;;8.80;99.90;;;;;;5070879;28;20485;-81
2024/01/31 10:49:31;;;;;;;8.80;6.60;;;8.70;99.90;;;;;;5071675;28;20488;-82
2024/01/31 10:52:01;;;;;;;11.73;6.80;;;8.70;99.90;;;;;;5065796;28;20462;-81
2024/01/31 10:54:31;;;;;;;10.47;7.03;;;8.80;99.90;;;;;;5079445;28;20502;-83
2024/01/31 10:57:00;;;;;;;10.80;5.93;;;8.80;99.90;;;;;;5074947;28;20551;-83
2024/01/31 10:59:27;;;;;;;7.37;5.60;;;8.90;99.90;;;;;;5085721;28;20504;-82
2024/01/31 11:01:58;;;;;;;10.70;6.47;;;9.10;99.90;;;;;;5086463;28;20459;-85
2024/01/31 11:04:26;;;;;;;8.47;6.00;;;9.20;99.90;;;;;;5088224;28;20786;-83
2024/01/31 11:06:54;;;;;;;7.57;5.50;;;9.20;99.90;;;;;;5084499;28;20450;-83
2024/01/31 11:09:22;;;;;;;15.13;6.53;;;9.10;99.90;;;;;;5076877;28;20525;-84
2024/01/31 11:12:01;;;;;;;10.80;5.90;;;9.10;99.90;;;;;;5075504;28;20462;-81
2024/01/31 11:14:30;;;;;;;12.90;6.80;;;9.10;99.90;;;;;;5082035;28;20503;-84
2024/01/31 11:17:06;;;;;;;12.00;6.77;;;9.00;99.90;;;;;;5074810;28;20443;-84
2024/01/31 11:19:37;;;;;;;12.40;7.40;;;8.80;99.90;;;;;;5074537;28;20509;-84
2024/01/31 11:22:06;;;;;;;16.10;7.57;;;9.00;99.90;;;;;;5074327;28;20453;-82
2024/01/31 11:24:33;;;;;;;9.90;6.80;;;9.10;99.90;;;;;;5076502;28;20472;-83
2024/01/31 11:27:03;;;;;;;11.80;8.27;;;9.00;99.90;;;;;;5075386;28;20558;-83
2024/01/31 11:29:30;;;;;;;9.93;7.13;;;8.90;99.90;;;;;;5081048;28;20462;-82
2024/01/31 11:31:58;;;;;;;13.90;8.23;;;9.00;99.90;;;;;;5078438;28;20450;-80
2024/01/31 11:34:26;;;;;;;13.50;9.47;;;9.00;99.90;;;;;;5082044;28;20470;-81
2024/01/31 11:36:53;;;;;;;14.00;8.67;;;9.00;99.90;;;;;;5083555;28;20486;-83
2024/01/31 11:39:20;;;;;;;15.37;8.70;;;8.90;99.90;;;;;;5084377;28;20509;-82
2024/01/31 11:41:46;;;;;;;13.17;8.70;;;8.90;99.90;;;;;;5084660;28;20460;-82
2024/01/31 11:44:15;;;;;;;13.10;8.03;;;9.00;99.90;;;;;;5084273;28;21020;-81
2024/01/31 11:46:42;;;;;;;13.33;8.20;;;9.10;99.90;;;;;;5081085;28;20456;-83
2024/01/31 11:49:09;;;;;;;13.43;8.97;;;9.20;99.90;;;;;;5081913;28;20566;-83
2024/01/31 11:51:35;;;;;;;18.13;10.10;;;9.10;99.90;;;;;;5077174;28;20447;-84
2024/01/31 11:54:02;;;;;;;15.13;9.30;;;9.10;99.90;;;;;;5075263;28;20464;-83
2024/01/31 11:56:30;;;;;;;17.20;9.33;;;9.10;99.90;;;;;;5075088;28;20469;-83
2024/01/31 11:58:57;;;;;;;12.67;9.10;;;9.20;99.90;;;;;;5075570;28;20538;-82
2024/01/31 12:01:26;;;;;;;14.73;8.80;;;9.20;99.90;;;;;;5083261;28;20458;-82
2024/01/31 12:03:53;;;;;;;19.70;9.93;;;9.30;99.90;;;;;;5077194;28;20483;-82
2024/01/31 12:06:20;;;;;;;14.10;8.40;;;9.20;99.90;;;;;;5077427;28;20485;-83
2024/01/31 12:08:48;;;;;;;14.80;8.90;;;9.20;99.90;;;;;;5087327;28;20490;-82
2024/01/31 12:11:15;;;;;;;13.67;9.10;;;9.20;99.90;;;;;;5082233;28;20501;-82
2024/01/31 12:13:42;;;;;;;17.83;9.40;;;9.20;99.90;;;;;;5087531;28;20470;-83
2024/01/31 12:16:09;;;;;;;13.87;9.13;;;8.90;99.90;;;;;;5083845;28;20575;-83
2024/01/31 12:18:38;;;;;;;14.63;8.90;;;8.90;99.90;;;;;;5082979;28;20500;-82
2024/01/31 12:21:06;;;;;;;20.27;9.53;;;9.10;99.90;;;;;;5080532;28;20962;-83
2024/01/31 12:23:33;;;;;;;13.80;8.47;;;9.00;99.90;;;;;;5079076;28;20479;-83
2024/01/31 12:26:00;;;;;;;16.37;9.20;;;9.00;99.90;;;;;;5074390;28;20984;-83
2024/01/31 12:28:27;;;;;;;14.37;8.77;;;9.10;99.90;;;;;;5083582;28;20493;-82
2024/01/31 12:30:56;;;;;;;14.03;9.47;;;9.00;99.90;;;;;;5081988;28;20454;-83
2024/01/31 12:33:23;;;;;;;13.60;8.70;;;8.90;99.90;;;;;;5079719;28;20476;-82
2024/01/31 12:35:51;;;;;;;14.83;10.43;;;9.10;99.90;;;;;;5074349;28;20514;-82
2024/01/31 12:38:18;;;;;;;22.10;9.50;;;9.00;99.90;;;;;;5078986;28;20556;-83
2024/01/31 12:40:45;;;;;;;15.60;10.63;;;9.00;99.90;;;;;;5082404;28;20827;-84
2024/01/31 12:43:12;;;;;;;12.97;9.10;;;9.10;99.90;;;;;;5072829;28;20957;-83
2024/01/31 12:45:39;;;;;;;15.17;9.70;;;9.10;99.90;;;;;;5073341;28;20529;-83
2024/01/31 12:48:07;;;;;;;20.90;11.53;;;9.20;99.90;;;;;;5076100;28;20483;-83
2024/01/31 12:50:34;;;;;;;17.40;9.63;;;9.20;99.90;;;;;;5077606;28;20449;-82
2024/01/31 12:53:02;;;;;;;16.53;10.30;;;9.20;99.90;;;;;;5082011;28;20705;-82
2024/01/31 12:55:29;;;;;;;15.40;8.80;;;9.30;99.90;;;;;;5075727;28;20455;-85